createdAt,value
2023-03-13T00:01:40.757Z,3.58
2023-03-13T00:04:09.816Z,5.88
2023-03-13T00:06:40.337Z,7.37
2023-03-13T00:09:11.515Z,6.68
2023-03-13T00:11:42.933Z,46.47
2023-03-13T00:14:11.674Z,44.10
2023-03-13T00:16:40.760Z,22.83
2023-03-13T00:19:10.284Z,12.43
2023-03-13T00:21:41.378Z,32.45
2023-03-13T00:24:11.891Z,11.93
2023-03-13T00:26:45.029Z,13.38
2023-03-13T00:29:13.639Z,9.13
2023-03-13T00:31:43.266Z,9.35
2023-03-13T00:34:12.375Z,4.97
2023-03-13T00:36:40.928Z,5.15
2023-03-13T00:39:09.561Z,6.40
2023-03-13T00:41:39.048Z,5.10
2023-03-13T00:44:09.476Z,7.63
2023-03-13T00:46:39.072Z,2.97
2023-03-13T00:49:07.904Z,4.03
2023-03-13T00:51:36.743Z,4.30
2023-03-13T00:54:05.458Z,5.82
2023-03-13T00:56:35.363Z,5.45
2023-03-13T00:59:04.098Z,5.27
2023-03-13T01:01:35.504Z,8.52
2023-03-13T01:04:06.664Z,5.30
2023-03-13T01:06:37.974Z,7.20
2023-03-13T01:09:08.623Z,6.47
2023-03-13T01:11:40.051Z,7.47
2023-03-13T01:14:11.653Z,8.43
2023-03-13T01:16:42.294Z,8.40
2023-03-13T01:19:13.667Z,8.57
2023-03-13T01:21:43.511Z,7.22
2023-03-13T01:26:40.665Z,4.88
2023-03-13T01:29:09.377Z,7.43
2023-03-13T01:31:38.688Z,9.90
2023-03-13T01:34:12.232Z,6.20
2023-03-13T01:36:40.882Z,5.38
2023-03-13T01:39:09.495Z,4.40
2023-03-13T01:41:39.608Z,4.53
2023-03-13T01:44:19.785Z,6.55
2023-03-13T01:46:48.682Z,6.65
2023-03-13T01:49:38.900Z,5.30
2023-03-13T01:52:32.182Z,5.45
2023-03-13T01:55:18.275Z,4.40
2023-03-13T01:57:53.236Z,6.22
2023-03-13T02:00:25.756Z,4.15
2023-03-13T02:02:58.073Z,4.85
2023-03-13T02:05:32.041Z,6.03
2023-03-13T02:08:04.486Z,6.40
2023-03-13T02:10:36.279Z,6.63
2023-03-13T02:13:05.511Z,6.63
2023-03-13T02:15:35.629Z,9.00
2023-03-13T02:18:04.288Z,7.57
2023-03-13T02:20:34.330Z,8.93
2023-03-13T02:23:08.762Z,7.45
2023-03-13T02:25:45.863Z,7.45
2023-03-13T02:28:20.871Z,7.43
2023-03-13T02:30:52.675Z,8.85
2023-03-13T02:33:22.065Z,8.57
2023-03-13T02:38:25.285Z,11.25
2023-03-13T02:40:56.997Z,11.70
2023-03-13T02:43:31.145Z,12.20
2023-03-13T02:46:09.629Z,14.50
2023-03-13T02:48:44.092Z,15.73
2023-03-13T02:51:18.563Z,20.27
2023-03-13T02:53:50.178Z,18.42
2023-03-13T02:56:23.981Z,13.65
2023-03-13T02:58:52.741Z,14.43
2023-03-13T03:01:25.346Z,13.40
2023-03-13T03:03:54.194Z,11.38
2023-03-13T03:06:22.721Z,10.02
2023-03-13T03:08:52.199Z,8.32
2023-03-13T03:11:22.297Z,8.27
2023-03-13T03:13:57.135Z,11.80
2023-03-13T03:16:26.899Z,9.77
2023-03-13T03:18:55.468Z,10.27
2023-03-13T03:21:24.773Z,7.65
2023-03-13T03:26:23.786Z,7.10
2023-03-13T03:28:52.778Z,6.53
2023-03-13T03:31:21.692Z,8.88
2023-03-13T03:33:50.459Z,8.63
2023-03-13T03:36:22.290Z,5.55
2023-03-13T03:38:52.046Z,8.80
2023-03-13T03:41:27.092Z,6.57
2023-03-13T03:43:56.944Z,4.97
2023-03-13T03:46:30.209Z,9.75
2023-03-13T03:48:58.932Z,18.60
2023-03-13T03:51:27.841Z,10.75
2023-03-13T03:53:56.530Z,12.40
2023-03-13T03:56:26.789Z,9.75
2023-03-13T03:58:58.394Z,9.57
2023-03-13T04:01:37.749Z,8.13
2023-03-13T04:04:07.358Z,8.05
2023-03-13T04:06:35.912Z,5.88
2023-03-13T04:09:06.341Z,12.60
2023-03-13T04:11:38.376Z,7.65
2023-03-13T04:14:08.560Z,5.75
2023-03-13T04:16:37.818Z,10.43
2023-03-13T04:19:07.616Z,9.68
2023-03-13T04:21:38.198Z,6.55
2023-03-13T04:24:11.487Z,6.00
2023-03-13T04:26:44.133Z,7.85
2023-03-13T04:29:13.311Z,7.07
2023-03-13T04:32:11.122Z,5.97
2023-03-13T04:34:58.167Z,6.88
2023-03-13T04:37:41.185Z,9.40
2023-03-13T04:40:30.124Z,8.88
2023-03-13T04:43:29.405Z,9.00
2023-03-13T04:46:10.387Z,8.52
2023-03-13T04:49:09.111Z,7.00
2023-03-13T04:51:53.464Z,7.95
2023-03-13T04:54:42.286Z,7.15
2023-03-13T04:57:21.116Z,6.03
2023-03-13T04:59:57.172Z,12.75
2023-03-13T05:02:41.702Z,8.35
2023-03-13T05:05:13.101Z,6.68
2023-03-13T05:07:51.071Z,7.45
2023-03-13T05:10:28.709Z,4.18
2023-03-13T05:13:18.758Z,9.82
2023-03-13T05:16:07.580Z,6.68
2023-03-13T05:18:56.160Z,6.32
2023-03-13T05:21:43.605Z,6.47
2023-03-13T05:24:27.356Z,6.75
2023-03-13T05:27:14.974Z,6.88
2023-03-13T05:30:10.251Z,8.27
2023-03-13T05:32:56.791Z,11.95
2023-03-13T05:35:44.597Z,9.52
2023-03-13T05:38:25.157Z,12.77
2023-03-13T05:41:12.374Z,9.48
2023-03-13T05:44:00.308Z,12.18
2023-03-13T05:46:39.205Z,8.65
2023-03-13T05:49:41.617Z,12.27
2023-03-13T05:52:20.978Z,14.32
2023-03-13T05:55:19.383Z,9.73
2023-03-13T05:58:07.029Z,10.60
2023-03-13T06:00:50.145Z,13.27
2023-03-13T06:03:42.255Z,11.20
2023-03-13T06:06:13.883Z,16.75
2023-03-13T06:08:49.095Z,13.88
2023-03-13T06:11:17.927Z,9.07
2023-03-13T06:13:46.967Z,9.50
2023-03-13T06:16:42.113Z,6.13
2023-03-13T06:19:19.654Z,5.25
2023-03-13T06:21:49.886Z,5.28
2023-03-13T06:24:18.629Z,6.55
2023-03-13T06:26:49.766Z,7.05
2023-03-13T06:29:19.023Z,7.32
2023-03-13T06:31:47.731Z,5.75
2023-03-13T06:34:16.670Z,9.70
2023-03-13T06:36:45.495Z,5.95
2023-03-13T06:39:15.550Z,5.50
2023-03-13T06:41:44.295Z,5.97
2023-03-13T06:44:12.969Z,9.00
2023-03-13T06:46:41.687Z,15.23
2023-03-13T06:49:10.311Z,6.93
2023-03-13T06:51:38.984Z,13.00
2023-03-13T06:54:07.577Z,7.57
2023-03-13T06:56:37.758Z,9.23
2023-03-13T06:59:06.478Z,13.68
2023-03-13T07:01:35.052Z,11.48
2023-03-13T07:04:03.864Z,11.52
2023-03-13T07:06:32.681Z,14.17
2023-03-13T07:09:01.605Z,17.40
2023-03-13T07:11:30.197Z,13.90
2023-03-13T07:14:15.335Z,8.55
2023-03-13T07:16:45.384Z,9.95
2023-03-13T07:19:14.471Z,10.90
2023-03-13T07:21:44.436Z,10.88
2023-03-13T07:24:14.703Z,14.02
2023-03-13T07:26:57.948Z,6.97
2023-03-13T07:29:33.518Z,19.92
2023-03-13T07:32:02.275Z,27.20
2023-03-13T07:34:33.330Z,15.13
2023-03-13T07:37:02.710Z,21.27
2023-03-13T07:39:31.394Z,15.60
2023-03-13T07:42:00.058Z,8.30
2023-03-13T07:44:28.661Z,9.70
2023-03-13T07:47:01.512Z,9.27
2023-03-13T07:49:31.833Z,14.63
2023-03-13T07:52:01.194Z,10.50
2023-03-13T07:54:29.943Z,9.52
2023-03-13T07:56:58.994Z,9.13
2023-03-13T07:59:27.657Z,6.75
2023-03-13T08:01:57.973Z,11.82
2023-03-13T08:04:26.784Z,11.00
2023-03-13T08:06:55.544Z,9.25
2023-03-13T08:09:24.632Z,7.40
2023-03-13T08:11:53.227Z,10.18
2023-03-13T08:14:21.840Z,11.85
2023-03-13T08:16:50.489Z,7.65
2023-03-13T08:19:20.604Z,9.88
2023-03-13T08:21:49.375Z,9.65
2023-03-13T08:24:18.227Z,7.38
2023-03-13T08:26:46.954Z,11.97
2023-03-13T08:29:16.199Z,10.20
2023-03-13T08:31:47.691Z,8.68
2023-03-13T08:34:17.121Z,13.30
2023-03-13T08:36:47.376Z,7.88
2023-03-13T08:39:17.654Z,60.28
2023-03-13T08:41:46.746Z,20.67
2023-03-13T08:44:17.724Z,24.10
2023-03-13T08:46:49.377Z,52.03
2023-03-13T08:49:18.753Z,12.27
2023-03-13T08:51:48.757Z,16.45
2023-03-13T08:54:17.393Z,13.25
2023-03-13T08:56:46.803Z,12.73
2023-03-13T08:59:17.166Z,16.42
2023-03-13T09:01:50.056Z,10.75
2023-03-13T09:04:19.163Z,11.25
2023-03-13T09:06:49.372Z,14.10
2023-03-13T09:09:17.945Z,12.02
2023-03-13T09:11:50.293Z,13.65
2023-03-13T09:14:19.372Z,13.52
2023-03-13T09:16:48.353Z,14.55
2023-03-13T09:19:19.375Z,12.77
2023-03-13T09:21:51.561Z,8.05
2023-03-13T09:24:20.372Z,9.35
2023-03-13T09:27:00.451Z,15.07
2023-03-13T09:29:29.793Z,11.68
2023-03-13T09:31:58.362Z,10.82
2023-03-13T09:34:27.895Z,10.05
2023-03-13T09:36:57.939Z,9.77
2023-03-13T09:39:26.633Z,12.55
2023-03-13T09:42:01.559Z,9.85
2023-03-13T09:44:34.863Z,7.65
2023-03-13T09:47:07.376Z,11.70
2023-03-13T09:49:39.246Z,6.40
2023-03-13T09:52:17.665Z,11.57
2023-03-13T09:54:51.297Z,8.20
2023-03-13T09:57:30.035Z,10.20
2023-03-13T10:00:01.877Z,10.48
2023-03-13T10:02:34.146Z,11.63
2023-03-13T10:05:11.701Z,9.40
2023-03-13T10:07:41.709Z,11.70
2023-03-13T10:10:16.557Z,10.93
2023-03-13T10:12:47.904Z,25.48
2023-03-13T10:15:35.835Z,53.45
2023-03-13T10:18:16.039Z,10.63
2023-03-13T10:20:46.983Z,8.70
2023-03-13T10:23:22.749Z,8.68
2023-03-13T10:25:51.453Z,9.70
2023-03-13T10:28:22.728Z,7.88
2023-03-13T10:30:54.503Z,10.85
2023-03-13T10:33:28.164Z,9.10
2023-03-13T10:36:09.082Z,28.48
2023-03-13T10:38:48.557Z,18.15
2023-03-13T10:41:26.856Z,7.28
2023-03-13T10:43:57.155Z,15.32
2023-03-13T10:46:28.387Z,7.25
2023-03-13T10:48:58.026Z,13.43
2023-03-13T10:51:35.976Z,11.23
2023-03-13T10:54:17.250Z,8.95
2023-03-13T10:56:45.939Z,6.78
2023-03-13T10:59:24.380Z,6.28
2023-03-13T11:01:54.164Z,10.00
2023-03-13T11:07:03.213Z,7.70
2023-03-13T11:09:33.941Z,10.88
2023-03-13T11:12:08.397Z,9.45
2023-03-13T11:14:37.294Z,7.63
2023-03-13T11:17:14.598Z,14.00
2023-03-13T11:19:55.267Z,13.32
2023-03-13T11:22:32.125Z,11.63
2023-03-13T11:25:18.958Z,13.43
2023-03-13T11:27:56.080Z,26.77
2023-03-13T11:30:50.302Z,26.83
2023-03-13T11:33:29.665Z,19.65
2023-03-13T11:36:04.991Z,39.67
2023-03-13T11:38:37.656Z,13.15
2023-03-13T11:41:23.991Z,9.55
2023-03-13T11:44:07.866Z,24.38
2023-03-13T11:46:47.565Z,13.82
2023-03-13T11:52:20.798Z,17.60
2023-03-13T11:55:04.751Z,15.50
2023-03-13T11:57:42.140Z,13.82
2023-03-13T12:00:25.766Z,13.00
2023-03-13T12:03:00.474Z,12.65
2023-03-13T12:05:34.306Z,11.60
2023-03-13T12:08:07.180Z,12.18
2023-03-13T12:10:40.710Z,13.73
2023-03-13T12:13:17.662Z,14.02
2023-03-13T12:15:49.593Z,21.23
2023-03-13T12:18:23.986Z,13.60
2023-03-13T12:20:58.457Z,15.48
2023-03-13T12:23:36.785Z,15.38
2023-03-13T12:26:11.268Z,12.82
2023-03-13T12:28:46.835Z,16.00
2023-03-13T12:31:23.392Z,13.27
2023-03-13T12:34:01.552Z,11.93
2023-03-13T12:36:35.655Z,9.82
2023-03-13T12:39:19.664Z,12.48
2023-03-13T12:41:57.453Z,11.65
2023-03-13T12:44:27.970Z,14.00
2023-03-13T12:47:06.237Z,12.25
2023-03-13T12:50:10.723Z,12.43
2023-03-13T12:53:18.526Z,11.25
2023-03-13T12:56:19.783Z,12.93
2023-03-13T12:58:52.289Z,9.57
2023-03-13T13:01:32.108Z,15.88
2023-03-13T13:04:03.435Z,12.10
2023-03-13T13:06:57.276Z,13.63
2023-03-13T13:09:27.795Z,14.02
2023-03-13T13:11:59.138Z,20.55
2023-03-13T13:15:12.660Z,30.80
2023-03-13T13:18:00.937Z,20.05
2023-03-13T13:20:47.545Z,48.67
2023-03-13T13:23:39.169Z,24.20
2023-03-13T13:26:47.056Z,99.60
2023-03-13T13:29:57.405Z,19.52
2023-03-13T13:32:49.616Z,20.73
2023-03-13T13:35:31.506Z,14.30
2023-03-13T13:38:23.782Z,12.55
2023-03-13T13:41:05.325Z,14.27
2023-03-13T13:43:35.820Z,15.30
2023-03-13T13:46:09.264Z,14.88
2023-03-13T13:48:40.141Z,16.58
2023-03-13T13:51:26.653Z,15.75
2023-03-13T13:54:01.761Z,15.35
2023-03-13T13:56:47.244Z,20.13
2023-03-13T13:59:36.279Z,13.35
2023-03-13T14:02:20.972Z,20.42
2023-03-13T14:04:54.922Z,54.50
2023-03-13T14:07:32.099Z,33.60
2023-03-13T14:10:07.797Z,21.35
2023-03-13T14:12:38.293Z,18.70
2023-03-13T14:15:16.129Z,15.77
2023-03-13T14:17:46.595Z,15.50
2023-03-13T14:20:30.987Z,17.20
2023-03-13T14:23:03.337Z,18.50
2023-03-13T14:25:44.816Z,18.75
2023-03-13T14:28:22.772Z,17.83
2023-03-13T14:30:53.076Z,12.90
2023-03-13T14:33:22.366Z,12.30
2023-03-13T14:35:51.509Z,16.67
2023-03-13T14:38:23.393Z,33.63
2023-03-13T14:40:53.663Z,19.58
2023-03-13T14:43:26.540Z,25.08
2023-03-13T14:45:55.578Z,54.92
2023-03-13T14:48:28.730Z,17.13
2023-03-13T14:51:14.828Z,14.52
2023-03-13T14:53:57.733Z,13.50
2023-03-13T14:56:34.625Z,12.00
2023-03-13T14:59:16.583Z,13.25
2023-03-13T15:01:45.696Z,11.57
2023-03-13T15:04:14.479Z,15.13
2023-03-13T15:06:43.459Z,13.60
2023-03-13T15:09:25.235Z,11.93
2023-03-13T15:12:01.207Z,13.30
2023-03-13T15:14:39.018Z,14.85
2023-03-13T15:17:15.401Z,14.90
2023-03-13T15:19:44.580Z,14.57
2023-03-13T15:22:15.810Z,12.75
2023-03-13T15:24:59.577Z,12.75
2023-03-13T15:27:34.290Z,12.52
2023-03-13T15:30:03.047Z,13.52
2023-03-13T15:32:34.727Z,13.40
2023-03-13T15:35:04.095Z,11.93
2023-03-13T15:37:33.124Z,12.00
2023-03-13T15:40:07.705Z,12.73
2023-03-13T15:42:36.335Z,14.80
2023-03-13T15:45:05.375Z,11.90
2023-03-13T15:47:34.266Z,13.35
2023-03-13T15:50:02.889Z,13.10
2023-03-13T15:52:32.468Z,13.98
2023-03-13T15:55:02.975Z,13.70
2023-03-13T15:57:31.645Z,17.55
2023-03-13T16:00:00.354Z,18.52
2023-03-13T16:02:29.033Z,14.82
2023-03-13T16:04:57.761Z,13.38
2023-03-13T16:07:26.418Z,17.20
2023-03-13T16:09:55.147Z,12.55
2023-03-13T16:12:25.299Z,13.65
2023-03-13T16:14:54.000Z,18.85
2023-03-13T16:17:23.284Z,13.88
2023-03-13T16:19:51.970Z,18.90
2023-03-13T16:22:20.616Z,16.25
2023-03-13T16:24:49.291Z,15.32
2023-03-13T16:27:18.996Z,12.80
2023-03-13T16:37:17.879Z,18.63
2023-03-13T16:39:47.401Z,15.60
2023-03-13T16:42:16.414Z,19.20
2023-03-13T16:44:45.084Z,19.95
2023-03-13T16:47:23.073Z,18.20
2023-03-13T16:49:51.866Z,20.10
2023-03-13T16:52:20.559Z,23.60
2023-03-13T16:54:49.354Z,21.58
2023-03-13T16:57:20.080Z,19.10
2023-03-13T16:59:48.803Z,14.48
2023-03-13T17:02:20.715Z,17.83
2023-03-13T17:04:49.879Z,16.35
2023-03-13T17:07:21.054Z,16.33
2023-03-13T17:09:50.138Z,16.23
2023-03-13T17:12:20.054Z,23.92
2023-03-13T17:14:48.962Z,21.27
2023-03-13T17:17:21.034Z,41.83
2023-03-13T17:19:49.822Z,20.20
2023-03-13T17:22:19.731Z,19.90
2023-03-13T17:24:49.270Z,26.00
2023-03-13T17:27:19.296Z,20.35
2023-03-13T17:29:47.989Z,113.03
2023-03-13T17:32:18.358Z,46.95
2023-03-13T17:34:47.303Z,94.20
2023-03-13T17:37:17.807Z,19.40
2023-03-13T17:39:47.006Z,59.58
2023-03-13T17:42:16.397Z,29.65
2023-03-13T17:44:45.117Z,11.10
2023-03-13T17:47:23.802Z,17.17
2023-03-13T17:49:52.481Z,13.80
2023-03-13T17:52:21.142Z,13.27
2023-03-13T17:54:49.809Z,11.25
2023-03-13T17:57:20.814Z,20.30
2023-03-13T17:59:50.546Z,14.25
2023-03-13T18:02:20.495Z,12.63
2023-03-13T18:04:49.849Z,12.32
2023-03-13T18:07:22.673Z,14.13
2023-03-13T18:09:51.340Z,13.05
2023-03-13T18:12:20.074Z,11.63
2023-03-13T18:14:48.918Z,10.15
2023-03-13T18:17:21.182Z,12.60
2023-03-13T18:19:50.559Z,10.75
2023-03-13T18:22:22.721Z,10.77
2023-03-13T18:24:51.413Z,14.00
2023-03-13T18:27:22.450Z,13.32
2023-03-13T18:29:51.241Z,10.32
2023-03-13T18:32:21.419Z,10.60
2023-03-13T18:34:50.028Z,13.95
2023-03-13T18:37:24.864Z,9.80
2023-03-13T18:39:55.804Z,11.52
2023-03-13T18:42:24.881Z,12.38
2023-03-13T18:44:54.320Z,13.50
2023-03-13T18:47:27.427Z,10.88
2023-03-13T18:49:56.046Z,11.32
2023-03-13T18:52:24.562Z,14.57
2023-03-13T18:54:53.109Z,12.40
2023-03-13T18:57:21.936Z,12.10
2023-03-13T18:59:50.523Z,14.13
2023-03-13T19:02:21.923Z,12.18
2023-03-13T19:04:53.712Z,13.18
2023-03-13T19:07:26.798Z,11.27
2023-03-13T19:09:55.642Z,10.85
2023-03-13T19:12:24.342Z,12.47
2023-03-13T19:14:55.003Z,16.08
2023-03-13T19:17:33.038Z,57.85
2023-03-13T19:20:04.486Z,19.65
2023-03-13T19:22:33.257Z,26.90
2023-03-13T19:25:02.029Z,20.27
2023-03-13T19:27:31.609Z,25.10
2023-03-13T19:30:00.314Z,19.83
2023-03-13T19:32:30.974Z,30.17
2023-03-13T19:34:59.587Z,21.90
2023-03-13T19:37:29.690Z,23.27
2023-03-13T19:39:58.309Z,20.58
2023-03-13T19:42:28.628Z,17.67
2023-03-13T19:44:57.179Z,23.85
2023-03-13T19:47:25.854Z,21.58
2023-03-13T19:49:54.541Z,20.67
2023-03-13T19:52:24.408Z,27.20
2023-03-13T19:54:55.922Z,18.13
2023-03-13T19:57:24.747Z,25.85
2023-03-13T19:59:53.379Z,22.52
2023-03-13T20:02:22.140Z,36.55
2023-03-13T20:04:50.915Z,28.10
2023-03-13T20:07:19.494Z,67.28
2023-03-13T20:09:48.074Z,28.58
2023-03-13T20:12:18.608Z,22.98
2023-03-13T20:14:47.418Z,19.73
2023-03-13T20:17:16.138Z,26.40
2023-03-13T20:19:44.818Z,30.80
2023-03-13T20:22:13.811Z,31.17
2023-03-13T20:24:42.516Z,19.42
2023-03-13T20:27:11.248Z,23.33
2023-03-13T20:29:41.783Z,31.10
2023-03-13T20:32:11.488Z,35.70
2023-03-13T20:37:08.756Z,33.42
2023-03-13T20:39:40.377Z,15.52
2023-03-13T20:42:09.577Z,22.40
2023-03-13T20:44:38.909Z,17.20
2023-03-13T20:47:09.787Z,26.58
2023-03-13T20:49:41.172Z,15.30
2023-03-13T20:52:09.938Z,31.17
2023-03-13T20:54:38.876Z,28.85
2023-03-13T20:57:08.723Z,69.13
2023-03-13T20:59:37.527Z,24.13
2023-03-13T21:02:06.702Z,19.90
2023-03-13T21:04:36.847Z,27.85
2023-03-13T21:07:05.763Z,31.45
2023-03-13T21:09:35.041Z,50.00
2023-03-13T21:12:05.741Z,56.75
2023-03-13T21:14:37.382Z,39.13
2023-03-13T21:17:06.335Z,55.40
2023-03-13T21:19:36.888Z,29.38
2023-03-13T21:22:05.569Z,55.67
2023-03-13T21:24:34.343Z,44.80
2023-03-13T21:27:03.382Z,29.65
2023-03-13T21:29:32.449Z,75.00
2023-03-13T21:32:01.113Z,44.42
2023-03-13T21:34:29.917Z,37.63
2023-03-13T21:36:59.994Z,25.37
2023-03-13T21:39:28.778Z,64.75
2023-03-13T21:41:57.321Z,54.13
2023-03-13T21:44:27.374Z,78.05
2023-03-13T21:46:56.105Z,34.47
2023-03-13T21:49:24.930Z,56.55
2023-03-13T21:51:57.538Z,107.88
2023-03-13T21:54:27.962Z,41.35
2023-03-13T21:56:57.302Z,24.17
2023-03-13T21:59:30.480Z,28.90
2023-03-13T22:01:59.050Z,83.07
2023-03-13T22:04:27.849Z,85.00
2023-03-13T22:06:56.732Z,57.33
2023-03-13T22:09:25.494Z,41.10
2023-03-13T22:11:55.469Z,25.83
2023-03-13T22:14:25.608Z,33.22
2023-03-13T22:16:54.286Z,26.65
2023-03-13T22:19:22.886Z,39.38
2023-03-13T22:21:51.639Z,63.92
2023-03-13T22:24:20.237Z,55.63
2023-03-13T22:26:48.995Z,57.58
2023-03-13T22:29:18.993Z,101.30
2023-03-13T22:31:49.229Z,37.45
2023-03-13T22:34:19.618Z,31.80
2023-03-13T22:36:48.833Z,39.03
2023-03-13T22:39:18.663Z,28.70
2023-03-13T22:42:07.700Z,58.38
2023-03-13T22:44:43.130Z,29.73
2023-03-13T22:47:12.057Z,64.82
2023-03-13T22:49:44.481Z,56.10
2023-03-13T22:52:13.208Z,60.60
2023-03-13T22:54:43.904Z,46.40
2023-03-13T22:57:12.501Z,58.72
2023-03-13T22:59:42.453Z,48.38
2023-03-13T23:02:11.038Z,59.95
2023-03-13T23:04:39.663Z,54.10
2023-03-13T23:07:08.308Z,106.32
2023-03-13T23:09:36.907Z,44.10
2023-03-13T23:12:05.824Z,84.90
2023-03-13T23:14:34.571Z,96.95
2023-03-13T23:17:04.734Z,56.53
2023-03-13T23:19:38.279Z,117.10
2023-03-13T23:22:06.908Z,53.05
2023-03-13T23:24:37.104Z,86.72
2023-03-13T23:27:05.964Z,102.35
2023-03-13T23:29:34.605Z,69.87
2023-03-13T23:32:04.778Z,51.90
2023-03-13T23:34:33.517Z,96.55
2023-03-13T23:37:03.140Z,94.47
2023-03-13T23:39:32.357Z,42.53
2023-03-13T23:42:00.951Z,46.08
2023-03-13T23:44:31.994Z,69.07
2023-03-13T23:47:00.675Z,62.67
2023-03-13T23:49:32.011Z,61.55
2023-03-13T23:52:03.400Z,29.48
2023-03-13T23:57:25.091Z,62.85
2023-03-13T23:59:55.726Z,60.50
